createdAt,value
2023-03-19T10:08:39.128Z,988.81
2023-03-19T10:09:38.920Z,988.78
2023-03-19T10:10:38.839Z,988.77
2023-03-19T10:11:38.729Z,988.80
2023-03-19T10:12:38.693Z,988.79
2023-03-19T10:13:38.610Z,988.84
2023-03-19T10:14:38.535Z,988.84
2023-03-19T10:15:38.436Z,988.82
2023-03-19T10:17:38.376Z,988.86
2023-03-19T10:18:38.204Z,988.94
2023-03-19T10:20:38.052Z,988.98
2023-03-19T10:21:37.977Z,988.91
2023-03-19T10:22:37.901Z,988.89
2023-03-19T10:23:37.829Z,988.94
2023-03-19T10:24:37.786Z,989.00
2023-03-19T10:25:39.753Z,988.98
2023-03-19T10:26:37.708Z,988.88
2023-03-19T10:27:37.529Z,988.91
2023-03-19T10:28:37.456Z,988.96
2023-03-19T10:29:37.383Z,988.95
2023-03-19T10:30:37.310Z,988.94
2023-03-19T10:31:37.247Z,988.97
2023-03-19T10:32:37.240Z,988.93
2023-03-19T10:33:37.088Z,988.87
2023-03-19T10:34:37.016Z,988.91
2023-03-19T10:35:37.493Z,988.94
2023-03-19T10:36:36.868Z,988.91
2023-03-19T10:37:36.793Z,988.91
2023-03-19T10:38:36.719Z,988.81
2023-03-19T10:39:36.665Z,988.86
2023-03-19T10:40:36.588Z,988.88
2023-03-19T10:41:36.497Z,988.91
2023-03-19T10:42:36.449Z,988.85
2023-03-19T10:43:36.361Z,988.84
2023-03-19T10:44:36.277Z,988.84
2023-03-19T10:45:38.582Z,988.88
2023-03-19T10:46:36.127Z,988.80
2023-03-19T10:47:36.261Z,988.83
2023-03-19T10:48:36.228Z,988.85
2023-03-19T10:49:35.903Z,988.84
2023-03-19T10:50:35.839Z,988.81
2023-03-19T10:51:35.757Z,988.81
2023-03-19T10:52:35.719Z,988.82
2023-03-19T10:53:35.646Z,988.87
2023-03-19T10:54:35.541Z,988.79
2023-03-19T10:55:35.774Z,988.78
2023-03-19T10:56:35.403Z,988.82
2023-03-19T10:57:35.312Z,988.80
2023-03-19T10:58:35.598Z,988.78
2023-03-19T10:59:35.413Z,988.80
2023-03-19T11:00:35.092Z,988.85
2023-03-19T11:01:35.010Z,988.82
2023-03-19T11:02:34.936Z,988.82
2023-03-19T11:03:34.913Z,988.84
2023-03-19T11:04:34.790Z,988.83
2023-03-19T11:05:35.113Z,988.84
2023-03-19T11:06:34.689Z,988.82
2023-03-19T11:07:34.566Z,988.84
2023-03-19T11:08:35.976Z,988.93
2023-03-19T11:09:34.823Z,988.89
2023-03-19T11:10:34.355Z,988.85
2023-03-19T11:11:34.477Z,988.94
2023-03-19T11:12:34.264Z,988.93
2023-03-19T11:13:34.132Z,988.90
2023-03-19T11:14:34.052Z,988.90
2023-03-19T11:15:34.277Z,988.83
2023-03-19T11:16:33.975Z,988.85
2023-03-19T11:17:33.832Z,988.88
2023-03-19T11:18:33.763Z,988.87
2023-03-19T11:19:33.703Z,988.89
2023-03-19T11:20:33.652Z,988.81
2023-03-19T11:21:33.544Z,988.86
2023-03-19T11:22:33.476Z,988.79
2023-03-19T11:23:33.398Z,988.83
2023-03-19T11:24:33.329Z,988.84
2023-03-19T11:25:33.550Z,988.86
2023-03-19T11:26:33.182Z,988.82
2023-03-19T11:27:33.111Z,988.80
2023-03-19T11:28:33.234Z,988.81
2023-03-19T11:29:32.968Z,988.77
2023-03-19T11:30:32.901Z,988.77
2023-03-19T11:31:32.865Z,988.78
2023-03-19T11:32:33.047Z,988.75
2023-03-19T11:33:32.678Z,988.74
2023-03-19T11:34:32.598Z,988.71
2023-03-19T11:35:33.657Z,988.71
2023-03-19T11:36:32.458Z,988.72
2023-03-19T11:37:32.381Z,988.70
2023-03-19T11:38:32.305Z,988.69
2023-03-19T11:39:32.236Z,988.68
2023-03-19T11:40:32.158Z,988.69
2023-03-19T11:41:32.108Z,988.77
2023-03-19T11:42:32.013Z,988.76
2023-03-19T11:43:31.999Z,988.71
2023-03-19T11:44:31.889Z,988.75
2023-03-19T11:45:31.821Z,988.79
2023-03-19T11:46:31.772Z,988.85
2023-03-19T11:47:31.648Z,989.00
2023-03-19T11:48:31.625Z,988.98
2023-03-19T11:49:31.501Z,988.93
2023-03-19T11:50:31.433Z,988.92
2023-03-19T11:51:31.358Z,988.84
2023-03-19T11:52:31.286Z,988.75
2023-03-19T11:53:31.221Z,988.72
2023-03-19T11:54:31.152Z,988.72
2023-03-19T11:55:31.072Z,988.86
2023-03-19T11:56:31.002Z,989.00
2023-03-19T11:57:31.130Z,989.00
2023-03-19T11:58:30.864Z,988.99
2023-03-19T12:00:18.499Z,988.81
2023-03-19T12:01:18.832Z,989.02
2023-03-19T12:03:19.560Z,988.73
2023-03-19T12:06:18.061Z,988.92
2023-03-19T12:07:17.994Z,988.97
2023-03-19T12:08:17.905Z,988.72
2023-03-19T12:09:17.879Z,988.61
2023-03-19T12:10:17.769Z,988.66
2023-03-19T12:17:09.873Z,988.70
2023-03-19T12:18:09.784Z,988.84
2023-03-19T12:19:09.714Z,988.63
2023-03-19T12:20:09.642Z,988.59
2023-03-19T12:21:09.576Z,988.59
2023-03-19T12:22:09.502Z,988.55
2023-03-19T12:23:09.436Z,988.58
2023-03-19T12:24:09.368Z,988.55
2023-03-19T12:25:09.295Z,988.50
2023-03-19T12:28:36.145Z,988.51
2023-03-19T12:29:34.805Z,988.51
2023-03-19T12:30:34.734Z,988.49
2023-03-19T12:31:34.787Z,988.48
2023-03-19T12:32:34.671Z,988.46
2023-03-19T12:33:34.519Z,988.46
2023-03-19T12:34:34.445Z,988.41
2023-03-19T12:35:34.842Z,988.43
2023-03-19T12:36:34.304Z,988.37
2023-03-19T12:37:34.243Z,988.41
2023-03-19T12:38:34.156Z,988.38
2023-03-19T12:39:34.081Z,988.39
2023-03-19T12:40:34.010Z,988.40
2023-03-19T12:41:33.936Z,988.42
2023-03-19T12:42:33.917Z,988.42
2023-03-19T12:43:33.792Z,988.38
2023-03-19T12:44:33.716Z,988.41
2023-03-19T12:45:34.003Z,988.41
2023-03-19T12:46:33.594Z,988.42
2023-03-19T12:47:33.493Z,988.38
2023-03-19T12:48:33.441Z,988.40
2023-03-19T12:49:33.348Z,988.42
2023-03-19T12:50:33.591Z,988.43
2023-03-19T12:51:33.200Z,988.44
2023-03-19T12:52:33.127Z,988.47
2023-03-19T12:54:30.546Z,988.44
2023-03-19T12:55:30.472Z,988.42
2023-03-19T12:56:30.403Z,988.45
2023-03-19T12:57:30.326Z,988.40
2023-03-19T13:12:38.322Z,988.42
2023-03-19T13:23:37.493Z,988.79
2023-03-19T13:24:37.371Z,988.78
2023-03-19T13:25:37.346Z,988.78
2023-03-19T13:26:37.221Z,988.78
2023-03-19T13:27:37.144Z,988.80
2023-03-19T13:28:37.096Z,988.80
2023-03-19T13:29:36.998Z,988.78
2023-03-19T13:30:36.921Z,988.75
2023-03-19T13:31:36.922Z,988.78
2023-03-19T13:32:36.829Z,988.75
2023-03-19T13:33:36.689Z,988.70
2023-03-19T13:34:36.618Z,988.75
2023-03-19T13:35:36.652Z,988.69
2023-03-19T13:36:36.462Z,988.71
2023-03-19T14:23:53.218Z,988.89
2023-03-19T14:24:56.650Z,988.93
2023-03-19T14:25:52.745Z,988.87
2023-03-19T14:26:52.853Z,988.91
2023-03-19T14:27:52.566Z,988.97
2023-03-19T14:28:52.485Z,988.94
2023-03-19T14:29:52.410Z,988.90
2023-03-19T14:30:52.333Z,988.90
2023-03-19T14:31:52.356Z,988.90
2023-03-19T14:32:52.261Z,988.90
2023-03-19T14:33:52.111Z,988.91
2023-03-19T14:34:52.028Z,988.93
2023-03-19T14:35:52.044Z,988.92
2023-03-19T14:36:51.875Z,988.91
2023-03-19T14:37:51.798Z,988.92
2023-03-19T14:38:51.718Z,988.89
2023-03-19T14:39:51.666Z,988.92
2023-03-19T14:40:51.571Z,988.90
2023-03-19T14:41:51.694Z,988.92
2023-03-19T14:42:51.417Z,988.86
2023-03-19T14:46:17.058Z,988.87
2023-03-19T14:47:16.912Z,988.89
2023-03-19T14:48:16.829Z,988.90
2023-03-19T14:49:16.757Z,988.87
2023-03-19T14:50:16.678Z,988.86
2023-03-19T14:51:16.598Z,988.89
2023-03-19T14:52:16.523Z,988.88
2023-03-19T14:53:16.445Z,988.90
2023-03-19T14:54:16.369Z,988.95
2023-03-19T14:55:16.326Z,988.91
2023-03-19T14:56:16.217Z,988.91
2023-03-19T14:57:16.134Z,988.91
2023-03-19T14:58:16.064Z,988.87
2023-03-19T14:59:15.988Z,988.81
2023-03-19T15:00:15.910Z,988.82
2023-03-19T15:01:15.856Z,988.84
2023-03-19T15:02:15.752Z,988.83
2023-03-19T15:03:15.676Z,988.83
2023-03-19T15:04:15.597Z,988.85
2023-03-19T15:05:15.613Z,988.82
2023-03-19T15:06:15.458Z,988.85
2023-03-19T15:07:15.366Z,988.80
2023-03-19T15:08:15.290Z,988.81
2023-03-19T15:09:15.215Z,988.76
2023-03-19T15:10:15.134Z,988.77
2023-03-19T15:11:15.085Z,988.77
2023-03-19T15:12:14.982Z,988.75
2023-03-19T15:13:14.903Z,988.75
2023-03-19T15:14:14.827Z,988.74
2023-03-19T15:15:14.746Z,988.69
2023-03-19T15:16:14.703Z,988.76
2023-03-19T15:17:14.594Z,988.74
2023-03-19T15:18:14.516Z,988.75
2023-03-19T15:19:14.443Z,988.74
2023-03-19T15:20:14.385Z,988.76
2023-03-19T15:21:14.295Z,988.77
2023-03-19T15:22:14.211Z,988.71
2023-03-19T15:23:26.152Z,988.69
2023-03-19T15:24:14.061Z,988.69
2023-03-19T15:25:13.985Z,988.67
2023-03-19T15:26:13.907Z,988.72
2023-03-19T15:27:13.847Z,988.71
2023-03-19T15:28:14.075Z,988.68
2023-03-19T15:29:13.826Z,988.67
2023-03-19T15:30:18.534Z,988.65
2023-03-19T15:31:29.782Z,988.70
2023-03-19T15:32:16.098Z,988.70
2023-03-19T15:33:29.193Z,988.67
2023-03-19T15:34:13.413Z,988.71
2023-03-19T15:35:13.428Z,988.69
2023-03-19T15:36:13.333Z,988.70
2023-03-19T15:37:13.069Z,988.67
2023-03-19T15:38:13.010Z,988.65
2023-03-19T15:39:12.944Z,988.65
2023-03-19T15:40:12.841Z,988.64
2023-03-19T15:41:12.763Z,988.67
2023-03-19T15:42:12.689Z,988.65
2023-03-19T15:43:12.755Z,988.68
2023-03-19T15:44:12.555Z,988.67
2023-03-19T15:45:12.461Z,988.67
2023-03-19T15:46:12.448Z,988.63
2023-03-19T15:47:12.312Z,988.62
2023-03-19T15:48:12.238Z,988.63
2023-03-19T15:49:12.166Z,988.66
2023-03-19T15:50:12.573Z,988.62
2023-03-19T15:51:12.004Z,988.66
2023-03-19T15:52:11.931Z,988.64
2023-03-19T15:53:11.853Z,988.63
2023-03-19T15:54:11.779Z,988.64
2023-03-19T15:55:11.700Z,988.62
2023-03-19T15:56:11.782Z,988.64
2023-03-19T15:57:11.547Z,988.61
2023-03-19T15:58:11.474Z,988.65
2023-03-19T15:59:11.425Z,988.65
2023-03-19T16:00:12.131Z,988.67
2023-03-19T16:01:11.285Z,988.69
2023-03-19T16:02:11.188Z,988.69
2023-03-19T16:03:11.097Z,988.71
2023-03-19T16:04:11.025Z,988.70
2023-03-19T16:05:22.000Z,988.69
2023-03-19T16:06:10.867Z,988.71
2023-03-19T16:07:10.788Z,988.71
2023-03-19T16:08:10.715Z,988.74
2023-03-19T16:09:10.877Z,988.69
2023-03-19T16:10:10.562Z,988.73
2023-03-19T16:11:10.486Z,988.74
2023-03-19T16:12:10.413Z,988.73
2023-03-19T16:13:10.330Z,988.73
2023-03-19T16:14:10.320Z,988.72
2023-03-19T16:15:10.200Z,988.73
2023-03-19T16:16:10.191Z,988.71
2023-03-19T16:17:10.029Z,988.72
2023-03-19T16:18:09.963Z,988.73
2023-03-19T16:19:10.078Z,988.74
2023-03-19T16:20:09.808Z,988.71
2023-03-19T16:21:09.821Z,988.80
2023-03-19T16:22:09.647Z,988.85
2023-03-19T16:23:09.569Z,988.82
2023-03-19T16:24:09.503Z,988.80
2023-03-19T16:25:09.418Z,988.82
2023-03-19T16:26:09.340Z,988.84
2023-03-19T16:27:09.273Z,988.85
2023-03-19T16:28:09.188Z,988.83
2023-03-19T16:29:09.108Z,988.79
2023-03-19T16:30:09.033Z,988.79
2023-03-19T16:31:09.007Z,988.83
2023-03-19T16:32:09.078Z,988.88
2023-03-19T16:33:08.920Z,988.89
2023-03-19T16:34:08.721Z,988.86
2023-03-19T16:35:08.646Z,988.85
2023-03-19T16:36:08.616Z,988.86
2023-03-19T16:37:08.492Z,988.89
2023-03-19T16:38:08.665Z,988.85
2023-03-19T16:39:08.341Z,988.86
2023-03-19T16:40:08.262Z,988.87
2023-03-19T16:41:08.183Z,988.87
2023-03-19T16:42:08.104Z,988.89
2023-03-19T16:43:08.027Z,988.88
2023-03-19T16:44:07.953Z,988.89
2023-03-19T16:45:07.870Z,988.89
2023-03-19T16:46:07.851Z,988.91
2023-03-19T16:47:07.740Z,988.89
2023-03-19T16:48:07.642Z,988.88
2023-03-19T16:49:07.739Z,988.89
2023-03-19T16:50:07.490Z,988.91
2023-03-19T16:51:07.409Z,988.91
2023-03-19T16:52:07.331Z,988.90
2023-03-19T16:53:07.252Z,988.92
2023-03-19T16:54:07.178Z,988.97
2023-03-19T16:55:07.100Z,988.94
2023-03-19T16:56:07.031Z,988.96
2023-03-19T16:57:06.978Z,988.96
2023-03-19T16:58:06.868Z,989.00
2023-03-19T16:59:49.281Z,988.99
2023-03-19T17:00:49.195Z,989.02
2023-03-19T17:01:49.234Z,988.99
2023-03-19T17:02:49.062Z,989.01
2023-03-19T17:03:48.974Z,989.00
2023-03-19T17:04:49.333Z,989.03
2023-03-19T17:05:48.827Z,989.05
2023-03-19T17:06:48.731Z,989.11
2023-03-19T17:07:48.652Z,989.10
2023-03-19T17:08:49.194Z,989.08
2023-03-19T17:09:48.498Z,989.11
2023-03-19T17:10:48.550Z,989.07
2023-03-19T17:11:48.342Z,989.11
2023-03-19T17:12:48.265Z,989.13
2023-03-19T17:13:48.197Z,989.14
2023-03-19T17:14:48.110Z,989.14
2023-03-19T17:15:48.053Z,989.20
2023-03-19T17:16:47.965Z,989.16
2023-03-19T17:17:48.184Z,989.26
2023-03-19T17:18:47.863Z,989.24
2023-03-19T17:19:47.723Z,989.21
2023-03-19T17:20:47.645Z,989.23
2023-03-19T17:21:47.570Z,989.25
2023-03-19T17:22:47.488Z,989.24
2023-03-19T17:23:48.829Z,989.29
2023-03-19T17:24:47.339Z,989.32
2023-03-19T17:25:47.258Z,989.32
2023-03-19T17:26:47.288Z,989.33
2023-03-19T17:27:47.117Z,989.41
2023-03-19T17:28:47.024Z,989.46
2023-03-19T17:29:46.948Z,989.51
2023-03-19T17:30:46.869Z,989.48
2023-03-19T17:31:46.831Z,989.50
2023-03-19T17:32:46.750Z,989.53
2023-03-19T17:33:46.637Z,989.47
2023-03-19T17:34:46.578Z,989.49
2023-03-19T17:35:46.494Z,989.48
2023-03-19T17:36:46.400Z,989.46
2023-03-19T17:37:46.327Z,989.46
2023-03-19T17:38:46.246Z,989.45
2023-03-19T17:41:46.064Z,989.43
2023-03-19T17:42:52.438Z,989.44
2023-03-19T17:44:46.221Z,989.47
2023-03-19T17:45:46.153Z,989.48
2023-03-19T17:46:46.072Z,989.52
2023-03-19T17:47:46.494Z,989.54
2023-03-19T17:49:45.835Z,989.52
2023-03-19T17:50:45.328Z,989.58
2023-03-19T17:51:45.247Z,989.59
2023-03-19T17:52:45.774Z,989.60
2023-03-19T17:53:45.072Z,989.61
2023-03-19T17:54:45.025Z,989.59
2023-03-19T17:55:44.920Z,989.60
2023-03-19T17:56:44.937Z,989.60
2023-03-19T17:57:44.759Z,989.60
2023-03-19T17:58:44.678Z,989.64
2023-03-19T17:59:44.607Z,989.70
2023-03-19T18:00:44.588Z,989.67
2023-03-19T18:01:44.443Z,989.66
2023-03-19T18:02:44.365Z,989.69
2023-03-19T18:03:44.315Z,989.74
2023-03-19T18:04:44.212Z,989.76
2023-03-19T18:05:44.126Z,989.76
2023-03-19T18:06:44.071Z,989.71
2023-03-19T18:07:43.969Z,989.73
2023-03-19T18:08:43.887Z,989.74
2023-03-19T18:09:43.810Z,989.75
2023-03-19T18:10:43.729Z,989.78
2023-03-19T18:11:43.649Z,989.75
2023-03-19T18:12:43.568Z,989.75
2023-03-19T18:16:49.328Z,989.84
2023-03-19T18:17:49.130Z,989.85
2023-03-19T18:18:49.042Z,989.86
2023-03-19T18:19:48.967Z,989.88
2023-03-19T18:20:48.883Z,989.87
2023-03-19T18:21:48.817Z,989.88
2023-03-19T18:22:48.718Z,989.90
2023-03-19T18:23:48.634Z,989.87
2023-03-19T18:24:48.564Z,989.90
2023-03-19T18:25:48.476Z,989.90
2023-03-19T18:26:48.396Z,989.91
2023-03-19T18:27:48.318Z,989.97
2023-03-19T18:28:48.234Z,989.94
2023-03-19T18:29:48.253Z,989.95
2023-03-19T18:30:48.109Z,989.97
2023-03-19T18:31:48.030Z,989.95
2023-03-19T18:32:47.992Z,989.96
2023-03-19T18:33:47.832Z,989.97
2023-03-19T18:34:47.753Z,989.99
2023-03-19T18:35:47.729Z,990.01
2023-03-19T18:36:47.592Z,989.99
2023-03-19T18:37:47.632Z,990.01
2023-03-19T18:38:47.435Z,990.00
2023-03-19T18:39:47.353Z,990.00
2023-03-19T18:40:47.474Z,989.99
2023-03-19T18:41:47.215Z,989.99
2023-03-19T18:42:47.138Z,990.01
2023-03-19T18:43:47.090Z,989.98
2023-03-19T18:44:46.957Z,990.00
2023-03-19T18:45:46.949Z,990.02
2023-03-19T18:46:46.797Z,990.01
2023-03-19T18:47:46.724Z,990.01
2023-03-19T18:48:46.635Z,990.02
2023-03-19T18:49:46.557Z,990.04
2023-03-19T18:50:46.481Z,990.05
2023-03-19T18:52:01.086Z,990.08
2023-03-19T18:52:46.323Z,990.08
2023-03-19T18:53:46.254Z,990.09
2023-03-19T18:54:46.157Z,990.07
2023-03-19T18:55:46.337Z,990.13
2023-03-19T18:56:45.998Z,990.11
2023-03-19T18:57:53.213Z,990.13
2023-03-19T18:58:45.841Z,990.13
2023-03-19T18:59:45.788Z,990.15
2023-03-19T19:00:45.738Z,990.13
2023-03-19T19:01:45.609Z,990.15
2023-03-19T19:02:45.517Z,990.12
2023-03-19T19:03:45.486Z,990.10
2023-03-19T19:04:45.392Z,990.12
2023-03-19T19:05:45.278Z,990.10
2023-03-19T19:06:48.082Z,990.11
2023-03-19T19:07:45.118Z,990.14
2023-03-19T19:08:45.088Z,990.17
2023-03-19T19:09:44.982Z,990.08
2023-03-19T19:10:44.883Z,990.12
2023-03-19T19:11:44.799Z,990.11
2023-03-19T19:12:44.721Z,990.14
2023-03-19T19:13:55.381Z,990.14
2023-03-19T19:14:44.559Z,990.18
2023-03-19T19:15:44.480Z,990.21
2023-03-19T19:16:44.516Z,990.20
2023-03-19T19:17:44.324Z,990.19
2023-03-19T19:18:44.241Z,990.22
2023-03-19T19:19:44.311Z,990.23
2023-03-19T19:20:44.082Z,990.25
2023-03-19T19:21:44.003Z,990.22
2023-03-19T19:22:43.924Z,990.26
2023-03-19T19:23:43.844Z,990.23
2023-03-19T19:24:43.777Z,990.21
2023-03-19T19:25:43.704Z,990.23
2023-03-19T19:26:43.605Z,990.23
2023-03-19T19:27:43.525Z,990.24
2023-03-19T19:28:43.478Z,990.24
2023-03-19T19:29:43.365Z,990.23
2023-03-19T19:30:43.330Z,990.28
2023-03-19T19:31:43.216Z,990.29
2023-03-19T19:32:43.177Z,990.31
2023-03-19T19:33:43.046Z,990.33
2023-03-19T19:34:42.990Z,990.32
2023-03-19T19:35:42.914Z,990.32
2023-03-19T19:36:42.807Z,990.34
2023-03-19T19:37:42.742Z,990.35
2023-03-19T19:38:42.650Z,990.37
2023-03-19T19:39:42.574Z,990.39
2023-03-19T19:40:42.490Z,990.38
2023-03-19T19:41:42.431Z,990.41
2023-03-19T19:42:42.351Z,990.39
2023-03-19T19:43:42.253Z,990.47
2023-03-19T19:44:42.188Z,990.42
2023-03-19T19:45:42.192Z,990.45
2023-03-19T19:46:42.017Z,990.46
2023-03-19T19:47:41.932Z,990.49
2023-03-19T19:48:41.873Z,990.48
2023-03-19T19:49:41.773Z,990.47
2023-03-19T19:50:41.694Z,990.49
2023-03-19T19:51:41.612Z,990.49
2023-03-19T19:52:41.532Z,990.49
2023-03-19T19:53:41.454Z,990.51
2023-03-19T19:54:41.384Z,990.54
2023-03-19T19:55:41.492Z,990.56
2023-03-19T19:56:41.211Z,990.57
2023-03-19T19:57:41.172Z,990.59
2023-03-19T19:58:41.057Z,990.62
2023-03-19T19:59:41.217Z,990.64
2023-03-19T20:00:47.670Z,990.65
2023-03-19T20:01:40.855Z,990.66
2023-03-19T20:02:40.777Z,990.70
2023-03-19T20:03:40.736Z,990.71
2023-03-19T20:04:40.578Z,990.68
2023-03-19T20:05:40.485Z,990.71
2023-03-19T20:06:40.405Z,990.66
2023-03-19T20:07:40.326Z,990.69
2023-03-19T20:08:40.245Z,990.69
2023-03-19T20:09:40.364Z,990.72
2023-03-19T20:10:40.080Z,990.70
2023-03-19T20:11:40.003Z,990.75
2023-03-19T20:12:40.378Z,990.75
2023-03-19T20:13:39.894Z,990.80
2023-03-19T20:14:39.756Z,990.80
2023-03-19T20:15:39.733Z,990.82
2023-03-19T20:16:39.592Z,990.77
2023-03-19T20:17:39.512Z,990.80
2023-03-19T20:18:39.432Z,990.82
2023-03-19T20:19:39.546Z,990.83
2023-03-19T20:20:39.268Z,990.85
2023-03-19T20:21:39.200Z,990.86
2023-03-19T20:22:39.114Z,990.84
2023-03-19T20:23:39.019Z,990.84
2023-03-19T20:24:38.941Z,990.89
2023-03-19T20:25:38.912Z,990.89
2023-03-19T20:26:38.878Z,990.93
2023-03-19T20:27:38.698Z,990.93
2023-03-19T20:28:38.615Z,990.92
2023-03-19T20:29:38.602Z,990.94
2023-03-19T20:30:38.449Z,990.92
2023-03-19T20:31:38.371Z,990.94
2023-03-19T20:32:38.507Z,990.93
2023-03-19T20:33:38.204Z,990.92
2023-03-19T20:34:39.654Z,990.92
2023-03-19T20:35:38.605Z,990.97
2023-03-19T20:36:37.967Z,990.97
2023-03-19T20:37:37.879Z,991.00
2023-03-19T20:38:37.796Z,990.96
2023-03-19T20:39:37.713Z,990.99
2023-03-19T20:40:37.632Z,990.97
2023-03-19T20:41:37.749Z,991.03
2023-03-19T20:47:37.093Z,991.01
2023-03-19T20:48:36.975Z,991.03
2023-03-19T20:49:36.893Z,991.04
2023-03-19T20:50:36.916Z,991.01
2023-03-19T20:51:36.856Z,991.04
2023-03-19T20:52:36.654Z,991.00
2023-03-19T20:53:36.565Z,991.04
2023-03-19T20:54:36.484Z,991.01
2023-03-19T20:55:36.764Z,991.05
2023-03-19T20:56:36.330Z,991.04
2023-03-19T20:57:36.236Z,991.07
2023-03-19T20:58:36.153Z,991.08
2023-03-19T20:59:36.071Z,991.12
2023-03-19T21:00:35.991Z,991.15
2023-03-19T21:01:35.944Z,991.13
2023-03-19T21:02:35.871Z,991.15
2023-03-19T21:03:35.793Z,991.17
2023-03-19T21:04:35.665Z,991.16
2023-03-19T21:05:35.938Z,991.17
2023-03-19T21:06:50.139Z,991.16
2023-03-19T21:07:35.423Z,991.18
2023-03-19T21:08:35.332Z,991.19
2023-03-19T21:09:35.250Z,991.18
2023-03-19T21:10:35.168Z,991.25
2023-03-19T21:11:35.085Z,991.29
2023-03-19T21:12:35.005Z,991.32
2023-03-19T21:13:34.921Z,991.30
2023-03-19T21:14:34.873Z,991.30
2023-03-19T21:15:35.106Z,991.32
2023-03-19T21:16:34.740Z,991.30
2023-03-19T21:17:34.592Z,991.29
2023-03-19T21:18:34.512Z,991.32
2023-03-19T21:19:34.457Z,991.36
2023-03-19T21:20:34.766Z,991.35
2023-03-19T21:21:34.284Z,991.34
2023-03-19T21:22:34.188Z,991.34
2023-03-19T21:23:34.309Z,991.32
2023-03-19T21:24:34.024Z,991.37
2023-03-19T21:25:34.212Z,991.37
2023-03-19T21:26:33.858Z,991.34
2023-03-19T21:27:33.782Z,991.36
2023-03-19T21:28:33.696Z,991.35
2023-03-19T21:29:33.635Z,991.39
2023-03-19T21:30:33.528Z,991.40
2023-03-19T21:31:33.898Z,991.39
2023-03-19T21:32:33.423Z,991.38
2023-03-19T21:33:33.299Z,991.36
2023-03-19T21:34:33.203Z,991.39
2023-03-19T21:35:33.384Z,991.41
2023-03-19T21:36:33.043Z,991.44
2023-03-19T21:37:33.310Z,991.44
2023-03-19T21:38:32.920Z,991.47
2023-03-19T21:39:32.791Z,991.47
2023-03-19T21:40:32.709Z,991.47
2023-03-19T21:41:32.652Z,991.47
2023-03-19T21:42:32.542Z,991.48
2023-03-19T21:43:32.469Z,991.42
2023-03-19T21:44:32.377Z,991.48
2023-03-19T21:45:32.294Z,991.46
2023-03-19T21:47:32.334Z,991.49
2023-03-19T21:48:32.084Z,991.49
2023-03-19T21:49:32.004Z,991.50
2023-03-19T21:50:31.930Z,991.48
2023-03-19T21:51:32.394Z,991.51
2023-03-19T21:52:39.816Z,991.48
2023-03-19T21:53:31.645Z,991.49
2023-03-19T21:54:31.556Z,991.51
2023-03-19T21:55:31.523Z,991.47
2023-03-19T21:56:31.390Z,991.47
2023-03-19T21:57:31.321Z,991.48
2023-03-19T21:58:31.233Z,991.43
2023-03-19T21:59:31.145Z,991.50
2023-03-19T22:00:31.092Z,991.47
2023-03-19T22:01:30.981Z,991.49
2023-03-19T22:02:30.896Z,991.46
2023-03-19T22:03:30.867Z,991.54
2023-03-19T22:04:30.738Z,991.52
2023-03-19T22:05:30.657Z,991.49
2023-03-19T22:06:31.015Z,991.54
2023-03-19T22:07:30.506Z,991.53
2023-03-19T22:08:30.401Z,991.54
2023-03-19T22:09:30.368Z,991.55
2023-03-19T22:10:30.244Z,991.56
2023-03-19T22:11:30.152Z,991.56
2023-03-19T22:12:30.069Z,991.52
2023-03-19T22:13:29.988Z,991.55
2023-03-19T22:14:29.906Z,991.51
2023-03-19T22:15:29.822Z,991.56
2023-03-19T22:16:29.941Z,991.56
2023-03-19T22:17:29.664Z,991.56
2023-03-19T22:18:29.574Z,991.56
2023-03-19T22:19:29.500Z,991.54
2023-03-19T22:20:29.412Z,991.53
2023-03-19T22:21:29.328Z,991.56
2023-03-19T22:22:29.247Z,991.56
2023-03-19T22:23:29.207Z,991.59
2023-03-19T22:24:29.079Z,991.59
2023-03-19T22:25:29.000Z,991.60
2023-03-19T22:26:28.923Z,991.62
2023-03-19T22:27:28.833Z,991.64
2023-03-19T22:28:28.749Z,991.63
2023-03-19T22:29:28.671Z,991.65
2023-03-19T22:30:28.589Z,991.63
2023-03-19T22:31:28.619Z,991.65
2023-03-19T22:32:28.424Z,991.67
2023-03-19T22:33:28.348Z,991.68
2023-03-19T22:34:28.270Z,991.71
2023-03-19T22:35:28.178Z,991.74
2023-03-19T22:36:28.106Z,991.73
2023-03-19T22:37:28.412Z,991.75
2023-03-19T22:38:27.930Z,991.70
2023-03-19T22:39:27.866Z,991.67
2023-03-19T22:40:27.784Z,991.72
2023-03-19T22:41:27.686Z,991.68
2023-03-19T22:42:27.602Z,991.68
2023-03-19T22:43:27.520Z,991.65
2023-03-19T22:44:27.436Z,991.64
2023-03-19T22:45:27.357Z,991.61
2023-03-19T22:46:27.303Z,991.63
2023-03-19T22:47:27.191Z,991.67
2023-03-19T22:48:27.114Z,991.62
2023-03-19T22:49:27.376Z,991.65
2023-03-19T22:50:26.950Z,991.67
2023-03-19T22:51:26.860Z,991.66
2023-03-19T22:52:26.780Z,991.67
2023-03-19T22:53:26.900Z,991.74
2023-03-19T22:54:26.629Z,991.70
2023-03-19T22:55:26.557Z,991.70
2023-03-19T22:56:26.607Z,991.70
2023-03-19T22:57:26.388Z,991.70
2023-03-19T22:58:26.285Z,991.66
2023-03-19T22:59:26.201Z,991.67
2023-03-19T23:00:26.482Z,991.67
2023-03-19T23:01:26.095Z,991.66
2023-03-19T23:02:25.956Z,991.64
2023-03-19T23:03:25.871Z,991.67
2023-03-19T23:04:25.891Z,991.61
2023-03-19T23:05:25.705Z,991.57
2023-03-19T23:06:31.011Z,991.58
2023-03-19T23:07:25.538Z,991.62
2023-03-19T23:08:25.455Z,991.59
2023-03-19T23:09:25.376Z,991.59
2023-03-19T23:10:25.292Z,991.56
2023-03-19T23:11:25.353Z,991.53
2023-03-19T23:12:25.123Z,991.51
2023-03-19T23:13:25.041Z,991.51
2023-03-19T23:14:31.869Z,991.47
2023-03-19T23:15:24.895Z,991.48
2023-03-19T23:16:24.952Z,991.47
2023-03-19T23:17:24.718Z,991.45
2023-03-19T23:18:24.629Z,991.44
2023-03-19T23:19:24.795Z,991.47
2023-03-19T23:20:24.473Z,991.42
2023-03-19T23:21:24.380Z,991.44
2023-03-19T23:22:24.299Z,991.44
2023-03-19T23:23:24.217Z,991.45
2023-03-19T23:24:24.140Z,991.46
2023-03-19T23:25:24.050Z,991.43
2023-03-19T23:26:24.069Z,991.39
2023-03-19T23:27:23.947Z,991.45
2023-03-19T23:28:23.805Z,991.41
2023-03-19T23:29:24.528Z,991.44
2023-03-19T23:30:23.646Z,991.43
2023-03-19T23:31:23.556Z,991.42
2023-03-19T23:32:23.523Z,991.42
2023-03-19T23:33:23.393Z,991.40
2023-03-19T23:34:23.319Z,991.41
2023-03-19T23:35:23.233Z,991.42
2023-03-19T23:36:23.147Z,991.41
2023-03-19T23:37:23.122Z,991.43
2023-03-19T23:38:22.982Z,991.41
2023-03-19T23:39:22.894Z,991.42
2023-03-19T23:40:22.817Z,991.45
2023-03-19T23:41:23.038Z,991.40
2023-03-19T23:42:22.652Z,991.38
2023-03-19T23:43:22.586Z,991.42
2023-03-19T23:44:22.538Z,991.42
2023-03-19T23:45:22.405Z,991.40
2023-03-19T23:46:22.401Z,991.40
2023-03-19T23:47:22.436Z,991.41
2023-03-19T23:48:22.155Z,991.43
2023-03-19T23:49:22.077Z,991.44
2023-03-19T23:50:21.987Z,991.43
2023-03-19T23:51:21.905Z,991.41
2023-03-19T23:52:21.830Z,991.42
2023-03-19T23:53:21.741Z,991.45
2023-03-19T23:54:21.659Z,991.45
2023-03-19T23:55:21.578Z,991.48
2023-03-19T23:56:21.500Z,991.43
2023-03-19T23:57:21.417Z,991.46
2023-03-19T23:58:21.328Z,991.49
2023-03-19T23:59:21.264Z,991.51
